sensor_id;sensor_type;location;lat;lon;timestamp;pressure;altitude;pressure_sealevel;temperature;humidity
12763;BME280;6445;52.490;13.378;2023-03-03T00:00:06;-6393.25;;;-146.10;100.00
12763;BME280;6445;52.490;13.378;2023-03-03T00:02:32;-6645.50;;;-146.10;100.00
12763;BME280;6445;52.490;13.378;2023-03-03T00:04:57;-6645.50;;;-146.10;100.00
12763;BME280;6445;52.490;13.378;2023-03-03T00:07:22;-6393.25;;;-146.10;100.00
12763;BME280;6445;52.490;13.378;2023-03-03T00:09:48;-6897.75;;;-146.10;100.00
12763;BME280;6445;52.490;13.378;2023-03-03T00:12:22;-6645.50;;;-146.10;100.00
12763;BME280;6445;52.490;13.378;2023-03-03T00:14:48;-6645.50;;;-146.10;100.00
12763;BME280;6445;52.490;13.378;2023-03-03T00:17:20;-6645.50;;;-146.10;100.00
12763;BME280;6445;52.490;13.378;2023-03-03T00:19:45;-6645.50;;;-146.10;100.00
12763;BME280;6445;52.490;13.378;2023-03-03T00:22:37;-5888.72;;;-146.10;100.00
12763;BME280;6445;52.490;13.378;2023-03-03T00:25:29;-5636.41;;;-146.10;100.00
12763;BME280;6445;52.490;13.378;2023-03-03T00:27:55;-5384.09;;;-146.10;100.00
12763;BME280;6445;52.490;13.378;2023-03-03T00:30:25;-5888.72;;;-146.10;100.00
12763;BME280;6445;52.490;13.378;2023-03-03T00:32:52;-4879.41;;;-146.10;100.00
12763;BME280;6445;52.490;13.378;2023-03-03T00:35:32;-4122.28;;;-146.10;100.00
12763;BME280;6445;52.490;13.378;2023-03-03T00:38:01;-4374.69;;;-146.10;100.00
12763;BME280;6445;52.490;13.378;2023-03-03T00:40:35;-4374.69;;;-146.10;100.00
12763;BME280;6445;52.490;13.378;2023-03-03T00:43:01;-4122.28;;;-146.10;100.00
12763;BME280;6445;52.490;13.378;2023-03-03T00:45:47;-3617.44;;;-146.10;100.00
12763;BME280;6445;52.490;13.378;2023-03-03T00:48:23;-2607.53;;;-146.10;100.00
12763;BME280;6445;52.490;13.378;2023-03-03T00:50:50;-1849.97;;;-146.10;100.00
12763;BME280;6445;52.490;13.378;2023-03-03T00:53:17;-1597.41;;;-146.10;100.00
12763;BME280;6445;52.490;13.378;2023-03-03T00:55:44;-1597.41;;;-146.10;100.00
12763;BME280;6445;52.490;13.378;2023-03-03T00:58:10;-1597.41;;;-146.10;100.00
12763;BME280;6445;52.490;13.378;2023-03-03T01:00:36;-1344.81;;;-146.10;100.00
12763;BME280;6445;52.490;13.378;2023-03-03T01:03:04;-1092.22;;;-146.10;100.00
12763;BME280;6445;52.490;13.378;2023-03-03T01:05:29;-1344.81;;;-146.10;100.00
12763;BME280;6445;52.490;13.378;2023-03-03T01:07:55;-1092.22;;;-146.10;100.00
12763;BME280;6445;52.490;13.378;2023-03-03T01:10:20;-1344.81;;;-146.10;100.00
12763;BME280;6445;52.490;13.378;2023-03-03T01:12:45;-1344.81;;;-146.10;100.00
12763;BME280;6445;52.490;13.378;2023-03-03T01:15:13;-1597.41;;;-146.10;100.00
12763;BME280;6445;52.490;13.378;2023-03-03T01:17:38;-334.34;;;-146.10;100.00
12763;BME280;6445;52.490;13.378;2023-03-03T01:20:06;-839.59;;;-146.10;100.00
12763;BME280;6445;52.490;13.378;2023-03-03T01:22:31;-1597.41;;;-146.10;100.00
12763;BME280;6445;52.490;13.378;2023-03-03T01:24:57;-1849.97;;;-146.10;100.00
12763;BME280;6445;52.490;13.378;2023-03-03T01:27:22;-1597.41;;;-146.10;100.00
12763;BME280;6445;52.490;13.378;2023-03-03T01:29:47;-1597.41;;;-146.10;100.00
12763;BME280;6445;52.490;13.378;2023-03-03T01:32:13;-1597.41;;;-146.10;100.00
12763;BME280;6445;52.490;13.378;2023-03-03T01:34:38;-2102.50;;;-146.10;100.00
12763;BME280;6445;52.490;13.378;2023-03-03T01:37:03;-1597.41;;;-146.10;100.00
12763;BME280;6445;52.490;13.378;2023-03-03T01:39:28;-1344.81;;;-146.10;100.00
12763;BME280;6445;52.490;13.378;2023-03-03T01:41:54;-1597.41;;;-146.10;100.00
12763;BME280;6445;52.490;13.378;2023-03-03T01:44:19;-1092.22;;;-146.10;100.00
12763;BME280;6445;52.490;13.378;2023-03-03T01:46:50;-1597.41;;;-146.10;100.00
12763;BME280;6445;52.490;13.378;2023-03-03T01:49:21;-839.59;;;-146.10;100.00
12763;BME280;6445;52.490;13.378;2023-03-03T01:51:54;-1344.81;;;-146.10;100.00
12763;BME280;6445;52.490;13.378;2023-03-03T01:54:24;-81.66;;;-146.10;100.00
12763;BME280;6445;52.490;13.378;2023-03-03T01:56:53;-586.97;;;-146.10;100.00
12763;BME280;6445;52.490;13.378;2023-03-03T01:59:26;-1092.22;;;-146.10;100.00
12763;BME280;6445;52.490;13.378;2023-03-03T02:01:53;-2355.03;;;-146.10;100.00
12763;BME280;6445;52.490;13.378;2023-03-03T02:04:18;-2860.03;;;-146.10;100.00
12763;BME280;6445;52.490;13.378;2023-03-03T02:06:57;-3365.00;;;-146.10;100.00
12763;BME280;6445;52.490;13.378;2023-03-03T02:09:31;-3112.53;;;-146.10;100.00
12763;BME280;6445;52.490;13.378;2023-03-03T02:12:04;-2860.03;;;-146.10;100.00
12763;BME280;6445;52.490;13.378;2023-03-03T02:14:31;-2102.50;;;-146.10;100.00
12763;BME280;6445;52.490;13.378;2023-03-03T02:16:56;-2355.03;;;-146.10;100.00
12763;BME280;6445;52.490;13.378;2023-03-03T02:22:06;-3112.53;;;-146.10;100.00
12763;BME280;6445;52.490;13.378;2023-03-03T02:24:40;-3617.44;;;-146.10;100.00
12763;BME280;6445;52.490;13.378;2023-03-03T02:27:07;-4122.28;;;-146.10;100.00
12763;BME280;6445;52.490;13.378;2023-03-03T02:29:32;-4879.41;;;-146.10;100.00
12763;BME280;6445;52.490;13.378;2023-03-03T02:31:58;-5131.78;;;-146.10;100.00
12763;BME280;6445;52.490;13.378;2023-03-03T02:34:23;-5131.78;;;-146.10;100.00
12763;BME280;6445;52.490;13.378;2023-03-03T02:36:48;-5636.41;;;-146.10;100.00
12763;BME280;6445;52.490;13.378;2023-03-03T02:39:20;-6393.25;;;-146.10;100.00
12763;BME280;6445;52.490;13.378;2023-03-03T02:44:18;-6141.00;;;-146.10;100.00
12763;BME280;6445;52.490;13.378;2023-03-03T02:46:45;-5888.72;;;-146.10;100.00
12763;BME280;6445;52.490;13.378;2023-03-03T02:49:12;-5636.41;;;-146.10;100.00
12763;BME280;6445;52.490;13.378;2023-03-03T02:51:38;-5888.72;;;-146.10;100.00
12763;BME280;6445;52.490;13.378;2023-03-03T02:54:04;-5636.41;;;-146.10;100.00
12763;BME280;6445;52.490;13.378;2023-03-03T02:56:30;-6141.00;;;-146.10;100.00
12763;BME280;6445;52.490;13.378;2023-03-03T02:58:56;-6141.00;;;-146.10;100.00
12763;BME280;6445;52.490;13.378;2023-03-03T03:01:22;-6393.25;;;-146.10;100.00
12763;BME280;6445;52.490;13.378;2023-03-03T03:03:47;-6393.25;;;-146.10;100.00
12763;BME280;6445;52.490;13.378;2023-03-03T03:06:13;-6645.50;;;-146.10;100.00
12763;BME280;6445;52.490;13.378;2023-03-03T03:08:39;-6897.75;;;-146.10;100.00
12763;BME280;6445;52.490;13.378;2023-03-03T03:11:05;-6645.50;;;-146.10;100.00
12763;BME280;6445;52.490;13.378;2023-03-03T03:13:31;-6897.75;;;-146.10;100.00
12763;BME280;6445;52.490;13.378;2023-03-03T03:15:57;-6897.75;;;-146.10;100.00
12763;BME280;6445;52.490;13.378;2023-03-03T03:18:23;-6645.50;;;-146.10;100.00
12763;BME280;6445;52.490;13.378;2023-03-03T03:20:49;-6645.50;;;-146.10;100.00
12763;BME280;6445;52.490;13.378;2023-03-03T03:23:15;-7149.94;;;-146.10;100.00
12763;BME280;6445;52.490;13.378;2023-03-03T03:25:40;-8158.66;;;-146.10;100.00
12763;BME280;6445;52.490;13.378;2023-03-03T03:28:16;-8410.78;;;-146.10;100.00
12763;BME280;6445;52.490;13.378;2023-03-03T03:30:42;-8662.91;;;-146.10;100.00
12763;BME280;6445;52.490;13.378;2023-03-03T03:33:09;-8915.00;;;-146.10;100.00
12763;BME280;6445;52.490;13.378;2023-03-03T03:35:36;-9167.06;;;-146.10;100.00
12763;BME280;6445;52.490;13.378;2023-03-03T03:38:02;-9419.13;;;-146.10;100.00
12763;BME280;6445;52.490;13.378;2023-03-03T03:40:27;-8915.00;;;-146.10;100.00
12763;BME280;6445;52.490;13.378;2023-03-03T03:42:53;-8915.00;;;-146.10;100.00
12763;BME280;6445;52.490;13.378;2023-03-03T03:45:18;-8915.00;;;-146.10;100.00
12763;BME280;6445;52.490;13.378;2023-03-03T03:47:44;-8915.00;;;-146.10;100.00
12763;BME280;6445;52.490;13.378;2023-03-03T03:50:10;-8410.78;;;-146.10;100.00
12763;BME280;6445;52.490;13.378;2023-03-03T03:52:36;-8410.78;;;-146.10;100.00
12763;BME280;6445;52.490;13.378;2023-03-03T03:55:01;-8915.00;;;-146.10;100.00
12763;BME280;6445;52.490;13.378;2023-03-03T03:57:26;-8915.00;;;-146.10;100.00
12763;BME280;6445;52.490;13.378;2023-03-03T03:59:52;-9671.19;;;-146.10;100.00
12763;BME280;6445;52.490;13.378;2023-03-03T04:02:17;-10175.25;;;-146.10;100.00
12763;BME280;6445;52.490;13.378;2023-03-03T04:04:42;-10427.25;;;-146.10;100.00
12763;BME280;6445;52.490;13.378;2023-03-03T04:07:08;-10427.25;;;-146.10;100.00
12763;BME280;6445;52.490;13.378;2023-03-03T04:09:33;-10679.22;;;-146.10;100.00
12763;BME280;6445;52.490;13.378;2023-03-03T04:11:59;-10427.25;;;-146.10;100.00
12763;BME280;6445;52.490;13.378;2023-03-03T04:14:24;-10427.25;;;-146.10;100.00
12763;BME280;6445;52.490;13.378;2023-03-03T04:16:49;-10427.25;;;-146.10;100.00
12763;BME280;6445;52.490;13.378;2023-03-03T04:19:14;-10175.25;;;-146.10;100.00
12763;BME280;6445;52.490;13.378;2023-03-03T04:21:40;-9923.22;;;-146.10;100.00
12763;BME280;6445;52.490;13.378;2023-03-03T04:24:05;-10427.25;;;-146.10;100.00
12763;BME280;6445;52.490;13.378;2023-03-03T04:26:31;-10427.25;;;-146.10;100.00
12763;BME280;6445;52.490;13.378;2023-03-03T04:28:57;-10427.25;;;-146.10;100.00
12763;BME280;6445;52.490;13.378;2023-03-03T04:31:23;-10427.25;;;-146.10;100.00
12763;BME280;6445;52.490;13.378;2023-03-03T04:33:49;-10427.25;;;-146.10;100.00
12763;BME280;6445;52.490;13.378;2023-03-03T04:36:14;-10931.19;;;-146.10;100.00
12763;BME280;6445;52.490;13.378;2023-03-03T04:38:40;-10931.19;;;-146.10;100.00
12763;BME280;6445;52.490;13.378;2023-03-03T04:41:05;-10931.19;;;-146.10;100.00
12763;BME280;6445;52.490;13.378;2023-03-03T04:43:30;-11183.13;;;-146.10;100.00
12763;BME280;6445;52.490;13.378;2023-03-03T04:45:56;-11435.06;;;-146.10;100.00
12763;BME280;6445;52.490;13.378;2023-03-03T04:48:21;-11435.06;;;-146.10;100.00
12763;BME280;6445;52.490;13.378;2023-03-03T04:50:46;-11687.00;;;-146.10;100.00
12763;BME280;6445;52.490;13.378;2023-03-03T04:53:11;-11687.00;;;-146.10;100.00
12763;BME280;6445;52.490;13.378;2023-03-03T04:55:37;-11687.00;;;-146.10;100.00
12763;BME280;6445;52.490;13.378;2023-03-03T04:58:03;-11687.00;;;-146.10;100.00
12763;BME280;6445;52.490;13.378;2023-03-03T05:00:28;-11938.88;;;-146.10;100.00
12763;BME280;6445;52.490;13.378;2023-03-03T05:02:53;-12190.78;;;-146.10;100.00
12763;BME280;6445;52.490;13.378;2023-03-03T05:05:19;-12190.78;;;-146.10;100.00
12763;BME280;6445;52.490;13.378;2023-03-03T05:07:44;-12442.63;;;-146.10;100.00
12763;BME280;6445;52.490;13.378;2023-03-03T05:10:09;-12442.63;;;-146.10;100.00
12763;BME280;6445;52.490;13.378;2023-03-03T05:12:35;-12694.50;;;-146.10;100.00
12763;BME280;6445;52.490;13.378;2023-03-03T05:15:00;-12694.50;;;-146.10;100.00
12763;BME280;6445;52.490;13.378;2023-03-03T05:17:25;-12694.50;;;-146.10;100.00
12763;BME280;6445;52.490;13.378;2023-03-03T05:19:51;-12695.97;;;-146.10;100.00
12763;BME280;6445;52.490;13.378;2023-03-03T05:22:16;-12695.97;;;-146.10;100.00
12763;BME280;6445;52.490;13.378;2023-03-03T05:24:42;-12695.97;;;-146.10;100.00
12763;BME280;6445;52.490;13.378;2023-03-03T05:27:08;-12695.97;;;-146.10;100.00
12763;BME280;6445;52.490;13.378;2023-03-03T05:29:33;-12695.97;;;-146.10;100.00
12763;BME280;6445;52.490;13.378;2023-03-03T05:31:59;-12695.97;;;-146.10;100.00
12763;BME280;6445;52.490;13.378;2023-03-03T05:34:24;-12695.97;;;-146.10;100.00
12763;BME280;6445;52.490;13.378;2023-03-03T05:36:50;-12695.97;;;-146.10;100.00
12763;BME280;6445;52.490;13.378;2023-03-03T05:39:15;-12695.97;;;-146.10;100.00
12763;BME280;6445;52.490;13.378;2023-03-03T05:41:41;-12695.97;;;-146.10;100.00
12763;BME280;6445;52.490;13.378;2023-03-03T05:44:07;-12695.97;;;-146.10;100.00
12763;BME280;6445;52.490;13.378;2023-03-03T05:46:32;-12695.97;;;-146.10;100.00
12763;BME280;6445;52.490;13.378;2023-03-03T05:48:57;-12695.97;;;-146.10;100.00
12763;BME280;6445;52.490;13.378;2023-03-03T05:51:23;-12695.97;;;-146.10;100.00
12763;BME280;6445;52.490;13.378;2023-03-03T05:53:48;-12695.97;;;-146.10;100.00
12763;BME280;6445;52.490;13.378;2023-03-03T05:56:13;-12695.97;;;-146.10;100.00
12763;BME280;6445;52.490;13.378;2023-03-03T05:58:39;-12695.97;;;-146.10;100.00
12763;BME280;6445;52.490;13.378;2023-03-03T06:01:04;-12695.97;;;-146.10;100.00
12763;BME280;6445;52.490;13.378;2023-03-03T06:03:29;-12695.97;;;-146.10;100.00
12763;BME280;6445;52.490;13.378;2023-03-03T06:05:55;-12695.97;;;-146.10;100.00
12763;BME280;6445;52.490;13.378;2023-03-03T06:08:22;-12695.97;;;-146.10;100.00
12763;BME280;6445;52.490;13.378;2023-03-03T06:10:48;-12695.97;;;-146.10;100.00
12763;BME280;6445;52.490;13.378;2023-03-03T06:13:13;-12695.97;;;-146.10;100.00
12763;BME280;6445;52.490;13.378;2023-03-03T06:15:39;-12695.97;;;-146.10;100.00
12763;BME280;6445;52.490;13.378;2023-03-03T06:18:04;-12695.97;;;-146.10;100.00
12763;BME280;6445;52.490;13.378;2023-03-03T06:20:29;-12695.97;;;-146.10;100.00
12763;BME280;6445;52.490;13.378;2023-03-03T06:22:54;-12695.97;;;-146.10;100.00
12763;BME280;6445;52.490;13.378;2023-03-03T06:25:20;-12695.97;;;-146.10;100.00
12763;BME280;6445;52.490;13.378;2023-03-03T06:27:45;-12695.97;;;-146.10;100.00
12763;BME280;6445;52.490;13.378;2023-03-03T06:30:10;-12695.97;;;-146.10;100.00
12763;BME280;6445;52.490;13.378;2023-03-03T06:32:37;-12695.97;;;-146.10;100.00
12763;BME280;6445;52.490;13.378;2023-03-03T06:35:02;-12695.97;;;-146.10;100.00
12763;BME280;6445;52.490;13.378;2023-03-03T06:37:28;-12695.97;;;-146.10;100.00
12763;BME280;6445;52.490;13.378;2023-03-03T06:39:53;-12695.97;;;-146.10;100.00
12763;BME280;6445;52.490;13.378;2023-03-03T06:42:18;-12695.97;;;-146.10;100.00
12763;BME280;6445;52.490;13.378;2023-03-03T06:44:45;-12695.97;;;-146.10;100.00
12763;BME280;6445;52.490;13.378;2023-03-03T06:47:10;-12695.97;;;-146.10;100.00
12763;BME280;6445;52.490;13.378;2023-03-03T06:49:35;-12695.97;;;-146.10;100.00
12763;BME280;6445;52.490;13.378;2023-03-03T06:52:10;-12695.97;;;-146.10;100.00
12763;BME280;6445;52.490;13.378;2023-03-03T06:54:36;-12695.97;;;-146.10;100.00
12763;BME280;6445;52.490;13.378;2023-03-03T06:57:12;-12695.97;;;-146.10;100.00
12763;BME280;6445;52.490;13.378;2023-03-03T06:59:39;-12695.97;;;-146.10;100.00
12763;BME280;6445;52.490;13.378;2023-03-03T07:02:13;-12695.97;;;-146.10;100.00
12763;BME280;6445;52.490;13.378;2023-03-03T07:04:39;-12695.97;;;-146.10;100.00
12763;BME280;6445;52.490;13.378;2023-03-03T07:07:18;-12695.97;;;-146.10;100.00
12763;BME280;6445;52.490;13.378;2023-03-03T07:09:46;-12695.97;;;-146.10;100.00
12763;BME280;6445;52.490;13.378;2023-03-03T07:12:18;-12695.97;;;-146.10;100.00
12763;BME280;6445;52.490;13.378;2023-03-03T07:14:46;-12695.97;;;-146.10;100.00
12763;BME280;6445;52.490;13.378;2023-03-03T07:17:17;-12695.97;;;-146.10;100.00
12763;BME280;6445;52.490;13.378;2023-03-03T07:19:43;-12695.97;;;-146.10;100.00
12763;BME280;6445;52.490;13.378;2023-03-03T07:22:19;-12695.97;;;-146.10;100.00
12763;BME280;6445;52.490;13.378;2023-03-03T07:24:47;-12695.97;;;-146.10;100.00
12763;BME280;6445;52.490;13.378;2023-03-03T07:27:24;-12695.97;;;-146.10;100.00
12763;BME280;6445;52.490;13.378;2023-03-03T07:29:52;-12695.97;;;-146.10;100.00
12763;BME280;6445;52.490;13.378;2023-03-03T07:32:38;-12695.97;;;-146.10;100.00
12763;BME280;6445;52.490;13.378;2023-03-03T07:35:37;-12695.97;;;-146.10;100.00
12763;BME280;6445;52.490;13.378;2023-03-03T07:38:16;-12695.97;;;-146.10;100.00
12763;BME280;6445;52.490;13.378;2023-03-03T07:40:48;-12695.97;;;-146.10;100.00
12763;BME280;6445;52.490;13.378;2023-03-03T07:48:36;-12695.97;;;-146.10;100.00
12763;BME280;6445;52.490;13.378;2023-03-03T07:51:11;-12695.97;;;-146.10;100.00
12763;BME280;6445;52.490;13.378;2023-03-03T07:53:37;-12695.97;;;-146.10;100.00
12763;BME280;6445;52.490;13.378;2023-03-03T07:56:30;-12695.97;;;-146.10;100.00
12763;BME280;6445;52.490;13.378;2023-03-03T07:58:58;-12695.97;;;-146.10;100.00
12763;BME280;6445;52.490;13.378;2023-03-03T08:01:45;-12695.97;;;-146.10;100.00
12763;BME280;6445;52.490;13.378;2023-03-03T08:04:15;-12695.97;;;-146.10;100.00
12763;BME280;6445;52.490;13.378;2023-03-03T08:06:48;-12695.97;;;-146.10;100.00
12763;BME280;6445;52.490;13.378;2023-03-03T08:11:48;-12695.97;;;-146.10;100.00
12763;BME280;6445;52.490;13.378;2023-03-03T08:14:15;-12695.97;;;-146.10;100.00
12763;BME280;6445;52.490;13.378;2023-03-03T08:16:44;-12695.97;;;-146.10;100.00
12763;BME280;6445;52.490;13.378;2023-03-03T08:19:10;-12695.97;;;-146.10;100.00
12763;BME280;6445;52.490;13.378;2023-03-03T08:21:37;-12695.97;;;-146.10;100.00
12763;BME280;6445;52.490;13.378;2023-03-03T08:24:03;-12695.97;;;-146.10;100.00
12763;BME280;6445;52.490;13.378;2023-03-03T08:26:28;-12695.97;;;-146.10;100.00
12763;BME280;6445;52.490;13.378;2023-03-03T08:28:53;-12695.97;;;-146.10;100.00
12763;BME280;6445;52.490;13.378;2023-03-03T08:31:19;-12695.97;;;-146.10;100.00
12763;BME280;6445;52.490;13.378;2023-03-03T08:33:45;-12695.97;;;-146.10;100.00
12763;BME280;6445;52.490;13.378;2023-03-03T08:36:11;-12695.97;;;-146.10;100.00
12763;BME280;6445;52.490;13.378;2023-03-03T08:38:37;-12695.97;;;-146.10;100.00
12763;BME280;6445;52.490;13.378;2023-03-03T08:41:03;-12695.97;;;-146.10;100.00
12763;BME280;6445;52.490;13.378;2023-03-03T08:43:29;-12694.50;;;-146.10;100.00
12763;BME280;6445;52.490;13.378;2023-03-03T08:45:58;-12694.50;;;-146.10;100.00
12763;BME280;6445;52.490;13.378;2023-03-03T08:48:24;-12442.63;;;-146.10;100.00
12763;BME280;6445;52.490;13.378;2023-03-03T08:50:50;-12694.50;;;-146.10;100.00
12763;BME280;6445;52.490;13.378;2023-03-03T08:53:16;-12442.63;;;-146.10;100.00
12763;BME280;6445;52.490;13.378;2023-03-03T08:55:42;-12442.63;;;-146.10;100.00
12763;BME280;6445;52.490;13.378;2023-03-03T08:58:07;-11938.88;;;-146.10;100.00
12763;BME280;6445;52.490;13.378;2023-03-03T09:00:33;-11183.13;;;-146.10;100.00
12763;BME280;6445;52.490;13.378;2023-03-03T09:02:58;-10679.22;;;-146.10;100.00
12763;BME280;6445;52.490;13.378;2023-03-03T09:05:25;-9923.22;;;-146.10;100.00
12763;BME280;6445;52.490;13.378;2023-03-03T09:07:50;-9671.19;;;-146.10;100.00
12763;BME280;6445;52.490;13.378;2023-03-03T09:10:18;-9671.19;;;-146.10;100.00
12763;BME280;6445;52.490;13.378;2023-03-03T09:12:47;-9923.22;;;-146.10;100.00
12763;BME280;6445;52.490;13.378;2023-03-03T09:17:44;-9167.06;;;-146.10;100.00
12763;BME280;6445;52.490;13.378;2023-03-03T09:22:58;-6393.25;;;-146.10;100.00
12763;BME280;6445;52.490;13.378;2023-03-03T09:25:33;-5636.41;;;-146.10;100.00
12763;BME280;6445;52.490;13.378;2023-03-03T09:28:01;-6645.50;;;-146.10;100.00
12763;BME280;6445;52.490;13.378;2023-03-03T09:30:36;-7402.16;;;-146.10;100.00
12763;BME280;6445;52.490;13.378;2023-03-03T09:33:18;-6393.25;;;-146.10;100.00
12763;BME280;6445;52.490;13.378;2023-03-03T09:35:49;-6645.50;;;-146.10;100.00
12763;BME280;6445;52.490;13.378;2023-03-03T09:38:26;-5888.72;;;-146.10;100.00
12763;BME280;6445;52.490;13.378;2023-03-03T09:41:12;-5384.09;;;-146.10;100.00
12763;BME280;6445;52.490;13.378;2023-03-03T09:46:40;-3112.53;;;-146.10;100.00
12763;BME280;6445;52.490;13.378;2023-03-03T09:49:31;-2607.53;;;-146.10;100.00
12763;BME280;6445;52.490;13.378;2023-03-03T09:57:54;1434.66;;;-146.10;100.00
12763;BME280;6445;52.490;13.378;2023-03-03T10:12:06;6240.28;;;-146.10;100.00
12763;BME280;6445;52.490;13.378;2023-03-03T10:17:46;14854.75;;;-146.10;100.00
12763;BME280;6445;52.490;13.378;2023-03-03T10:20:40;23232.16;;;-146.10;100.00
12763;BME280;6445;52.490;13.378;2023-03-03T10:23:14;24219.28;;;-146.10;100.00
12763;BME280;6445;52.490;13.378;2023-03-03T10:29:00;18407.44;;;-146.10;100.00
12763;BME280;6445;52.490;13.378;2023-03-03T10:31:45;21201.13;;;-146.10;100.00
12763;BME280;6445;52.490;13.378;2023-03-03T10:34:40;23804.16;;;-146.10;100.00
12763;BME280;6445;52.490;13.378;2023-03-03T10:40:02;35655.81;;;-146.10;100.00
12763;BME280;6445;52.490;13.378;2023-03-03T10:45:10;39845.69;;;-146.10;100.00
12763;BME280;6445;52.490;13.378;2023-03-03T10:47:58;39083.91;;;-146.10;100.00
12763;BME280;6445;52.490;13.378;2023-03-03T10:50:37;39109.84;;;-146.10;100.00
12763;BME280;6445;52.490;13.378;2023-03-03T10:53:20;37548.88;;;-146.10;100.00
12763;BME280;6445;52.490;13.378;2023-03-03T10:56:00;37307.72;;;-146.10;100.00
12763;BME280;6445;52.490;13.378;2023-03-03T11:01:20;35229.50;;;-146.10;100.00
12763;BME280;6445;52.490;13.378;2023-03-03T11:07:00;31880.41;;;-146.10;100.00
12763;BME280;6445;52.490;13.378;2023-03-03T11:12:24;28470.50;;;-146.10;100.00
12763;BME280;6445;52.490;13.378;2023-03-03T11:15:12;28331.31;;;-146.10;100.00
12763;BME280;6445;52.490;13.378;2023-03-03T11:20:33;29548.47;;;-146.10;100.00
12763;BME280;6445;52.490;13.378;2023-03-03T11:25:49;34066.34;;;-146.10;100.00
12763;BME280;6445;52.490;13.378;2023-03-03T11:28:26;37309.69;;;-146.10;100.00
12763;BME280;6445;52.490;13.378;2023-03-03T11:31:05;41774.69;;;-146.10;100.00
12763;BME280;6445;52.490;13.378;2023-03-03T11:33:39;43119.75;;;-146.10;100.00
12763;BME280;6445;52.490;13.378;2023-03-03T11:36:20;44726.88;;;-146.10;100.00
12763;BME280;6445;52.490;13.378;2023-03-03T11:38:52;45034.38;;;-146.10;100.00
12763;BME280;6445;52.490;13.378;2023-03-03T11:41:31;44227.69;;;-146.10;100.00
12763;BME280;6445;52.490;13.378;2023-03-03T11:44:12;42355.38;;;-146.10;100.00
12763;BME280;6445;52.490;13.378;2023-03-03T11:47:03;43153.69;;;-146.10;100.00
12763;BME280;6445;52.490;13.378;2023-03-03T11:49:40;42746.53;;;-146.10;100.00
12763;BME280;6445;52.490;13.378;2023-03-03T11:52:19;43285.44;;;-146.10;100.00
12763;BME280;6445;52.490;13.378;2023-03-03T11:55:00;44589.09;;;-146.10;100.00
12763;BME280;6445;52.490;13.378;2023-03-03T11:57:44;46192.81;;;-146.10;100.00
12763;BME280;6445;52.490;13.378;2023-03-03T12:03:03;48788.47;;;-146.10;100.00
12763;BME280;6445;52.490;13.378;2023-03-03T12:05:43;49420.16;;;-146.10;100.00
12763;BME280;6445;52.490;13.378;2023-03-03T12:11:03;49558.13;;;-146.10;100.00
12763;BME280;6445;52.490;13.378;2023-03-03T12:16:48;50665.88;;;-146.10;100.00
12763;BME280;6445;52.490;13.378;2023-03-03T12:19:24;52065.97;;;-146.10;100.00
12763;BME280;6445;52.490;13.378;2023-03-03T12:24:58;51259.84;;;-146.10;100.00
12763;BME280;6445;52.490;13.378;2023-03-03T12:28:04;49542.13;;;-146.10;100.00
12763;BME280;6445;52.490;13.378;2023-03-03T12:33:49;48278.81;;;-146.10;100.00
12763;BME280;6445;52.490;13.378;2023-03-03T12:36:24;47889.09;;;-146.10;100.00
12763;BME280;6445;52.490;13.378;2023-03-03T12:39:00;48216.84;;;-146.10;100.00
12763;BME280;6445;52.490;13.378;2023-03-03T12:44:07;47993.00;;;-146.10;100.00
12763;BME280;6445;52.490;13.378;2023-03-03T12:47:00;48146.91;;;-146.10;100.00
12763;BME280;6445;52.490;13.378;2023-03-03T12:49:49;48740.50;;;-146.10;100.00
12763;BME280;6445;52.490;13.378;2023-03-03T12:58:13;51563.88;;;-146.10;100.00
12763;BME280;6445;52.490;13.378;2023-03-03T13:03:40;52106.00;;;-146.10;100.00
12763;BME280;6445;52.490;13.378;2023-03-03T13:06:51;50907.84;;;-146.10;100.00
12763;BME280;6445;52.490;13.378;2023-03-03T13:09:30;49989.97;;;-146.10;100.00
12763;BME280;6445;52.490;13.378;2023-03-03T13:12:32;50175.94;;;-146.10;100.00
12763;BME280;6445;52.490;13.378;2023-03-03T13:17:37;51195.84;;;-146.10;100.00
12763;BME280;6445;52.490;13.378;2023-03-03T13:20:21;51035.84;;;-146.10;100.00
12763;BME280;6445;52.490;13.378;2023-03-03T13:23:02;50571.88;;;-146.10;100.00
12763;BME280;6445;52.490;13.378;2023-03-03T13:25:41;50481.88;;;-146.10;100.00
12763;BME280;6445;52.490;13.378;2023-03-03T13:30:49;51253.84;;;-146.10;100.00
12763;BME280;6445;52.490;13.378;2023-03-03T13:33:24;51681.91;;;-146.10;100.00
12763;BME280;6445;52.490;13.378;2023-03-03T13:35:55;52686.19;;;-146.10;100.00
12763;BME280;6445;52.490;13.378;2023-03-03T13:38:25;53128.41;;;-146.10;100.00
12763;BME280;6445;52.490;13.378;2023-03-03T13:43:48;53138.41;;;-146.10;100.00
12763;BME280;6445;52.490;13.378;2023-03-03T13:49:19;53082.38;;;-146.10;100.00
12763;BME280;6445;52.490;13.378;2023-03-03T13:52:00;53254.47;;;-146.10;100.00
12763;BME280;6445;52.490;13.378;2023-03-03T14:05:47;52606.16;;;-146.10;100.00
12763;BME280;6445;52.490;13.378;2023-03-03T14:08:40;53280.50;;;-146.10;100.00
12763;BME280;6445;52.490;13.378;2023-03-03T14:11:10;53290.50;;;-146.10;100.00
12763;BME280;6445;52.490;13.378;2023-03-03T14:13:54;53922.91;;;-146.10;100.00
12763;BME280;6445;52.490;13.378;2023-03-03T14:19:26;54541.41;;;-146.10;100.00
12763;BME280;6445;52.490;13.378;2023-03-03T14:22:21;54761.63;;;-146.10;100.00
12763;BME280;6445;52.490;13.378;2023-03-03T14:24:58;54775.63;;;-146.10;100.00
12763;BME280;6445;52.490;13.378;2023-03-03T14:27:26;55526.41;;;-146.10;100.00
12763;BME280;6445;52.490;13.378;2023-03-03T14:29:52;55254.09;;;-146.10;100.00
12763;BME280;6445;52.490;13.378;2023-03-03T14:32:25;55188.03;;;-146.10;100.00
12763;BME280;6445;52.490;13.378;2023-03-03T14:35:00;55516.41;;;-146.10;100.00
12763;BME280;6445;52.490;13.378;2023-03-03T14:37:44;55408.28;;;-146.10;100.00